Terminal Aerodrome Forecast
Issued by NWS Rapid City, SD

Home | Current Version | Previous Version | Text Only | Print | Product List | Glossary Off
Versions: 1 2 3 4 5 6 7 8 9 10 11 12 13 14 15 16 17 18 19 20 21 22 23 24 25 26 27 28 29 30 31 32 33

000
FTUS43 KUNR 231546 AAA
TAFRAP
TAF AMD
KRAP 231546Z 2316/2412 14012KT P6SM OVC015
      TEMPO 2316/2317 BKN010
     FM231800 12014KT P6SM OVC020
     FM232100 09011KT P6SM -SHRA BKN030
     FM240000 06011KT 3SM -RA BR OVC012=

USA.gov is the U.S. government's official web portal to all federal, state and local government web resources and services.